Time;durP1;ratioP1;P1;durP2;ratioP2;P2;SDS_P1;SDS_P2;PMS_P1;PMS_P2;Temp;Humidity;BMP_temperature;BMP_pressure;BME280_temperature;BME280_humidity;BME280_pressure;Samples;Min_cycle;Max_cycle;Signal;HPM_P1;HPM_P2
2024/04/22 00:01:19;;;;;;;14.03;9.40;;;;;;;;;;776672;180;625151;-68
2024/04/22 00:03:45;;;;;;;10.17;7.13;;;;;;;;;;777259;180;714599;-66
2024/04/22 00:06:10;;;;;;;15.30;10.03;;;;;;;;;;774671;180;731730;-67
2024/04/22 00:08:36;;;;;;;11.20;8.77;;;;;;;;;;772851;180;712980;-68
2024/04/22 00:11:02;;;;;;;15.57;10.17;;;;;;;;;;769202;180;817623;-67
2024/04/22 00:13:28;;;;;;;17.40;8.48;;;;;;;;;;771351;180;895509;-68
2024/04/22 00:15:54;;;;;;;12.53;7.90;;;;;;;;;;767064;182;816152;-68
2024/04/22 00:18:20;;;;;;;18.23;10.00;;;;;;;;;;764139;182;816208;-67
2024/04/22 00:20:46;;;;;;;9.50;7.30;;;;;;;;;;768034;180;918590;-67
2024/04/22 00:23:12;;;;;;;15.07;10.50;;;;;;;;;;777459;180;694668;-67
2024/04/22 00:25:37;;;;;;;14.57;8.93;;;;;;;;;;772637;180;918540;-66
2024/04/22 00:28:03;;;;;;;11.37;9.30;;;;;;;;;;775057;180;913006;-67
2024/04/22 00:30:29;;;;;;;10.43;6.40;;;;;;;;;;774653;180;912472;-68
2024/04/22 00:32:55;;;;;;;15.47;11.60;;;;;;;;;;774938;179;919794;-66
2024/04/22 00:35:21;;;;;;;15.80;8.73;;;;;;;;;;775731;180;816898;-68
2024/04/22 00:37:47;;;;;;;10.47;5.60;;;;;;;;;;775507;180;813810;-67
2024/04/22 00:40:13;;;;;;;12.37;8.70;;;;;;;;;;770177;180;918495;-66
2024/04/22 00:42:43;;;;;;;14.40;9.30;;;;;;;;;;773411;180;916625;-66
2024/04/22 00:45:05;;;;;;;7.50;6.50;;;;;;;;;;771158;180;889055;-66
2024/04/22 00:47:30;;;;;;;11.40;7.40;;;;;;;;;;773028;180;819395;-66
2024/04/22 00:49:56;;;;;;;12.73;9.70;;;;;;;;;;766214;181;842857;-66
2024/04/22 00:52:22;;;;;;;11.30;8.70;;;;;;;;;;767608;180;918733;-69
2024/04/22 00:54:48;;;;;;;13.57;9.10;;;;;;;;;;771834;180;874105;-67
2024/04/22 00:57:14;;;;;;;15.03;9.70;;;;;;;;;;772741;180;817301;-67
2024/04/22 00:59:40;;;;;;;13.45;7.47;;;;;;;;;;768056;180;905880;-69
2024/04/22 01:02:06;;;;;;;11.25;6.05;;;;;;;;;;775812;180;801416;-66
2024/04/22 01:04:33;;;;;;;13.60;8.43;;;;;;;;;;769694;180;916910;-68
2024/04/22 01:06:57;;;;;;;9.67;8.27;;;;;;;;;;775937;180;918525;-67
2024/04/22 01:09:23;;;;;;;11.77;9.70;;;;;;;;;;774973;180;659134;-68
2024/04/22 01:11:49;;;;;;;13.53;9.50;;;;;;;;;;771780;180;893140;-67
2024/04/22 01:14:15;;;;;;;13.80;9.40;;;;;;;;;;773184;180;835985;-67
2024/04/22 01:16:41;;;;;;;11.40;6.47;;;;;;;;;;778534;180;875512;-68
2024/04/22 01:19:07;;;;;;;15.93;9.13;;;;;;;;;;763820;182;791537;-68
2024/04/22 01:21:33;;;;;;;12.00;9.77;;;;;;;;;;766274;180;892775;-68
2024/04/22 01:23:59;;;;;;;18.70;10.33;;;;;;;;;;771738;181;714014;-68
2024/04/22 01:26:25;;;;;;;12.67;8.07;;;;;;;;;;776837;180;842355;-68
2024/04/22 01:28:51;;;;;;;10.87;7.97;;;;;;;;;;769229;180;718759;-68
2024/04/22 01:31:16;;;;;;;13.10;8.90;;;;;;;;;;768852;181;918387;-67
2024/04/22 01:33:42;;;;;;;12.20;7.30;;;;;;;;;;777125;180;816441;-67
2024/04/22 01:36:08;;;;;;;12.03;9.77;;;;;;;;;;766691;181;881809;-69
2024/04/22 01:38:34;;;;;;;30.57;11.40;;;;;;;;;;774249;180;815168;-69
2024/04/22 01:41:00;;;;;;;12.43;9.83;;;;;;;;;;776515;179;918688;-68
2024/04/22 01:45:00;;;;;;;15.18;10.15;;;;;;;;;;778754;173;816232;-69
2024/04/22 01:47:26;;;;;;;13.60;8.40;;;;;;;;;;766535;180;910098;-68
2024/04/22 01:49:51;;;;;;;15.43;9.17;;;;;;;;;;778987;180;929908;-67
2024/04/22 01:52:17;;;;;;;14.90;8.20;;;;;;;;;;768430;179;855865;-68
2024/04/22 01:54:43;;;;;;;13.43;8.10;;;;;;;;;;771533;177;814549;-69
2024/04/22 01:57:09;;;;;;;11.80;6.72;;;;;;;;;;779322;177;819534;-69
2024/04/22 01:59:35;;;;;;;10.40;7.33;;;;;;;;;;772209;179;884135;-69
2024/04/22 02:02:01;;;;;;;12.07;8.18;;;;;;;;;;771348;177;917559;-68
2024/04/22 02:04:26;;;;;;;6.87;4.70;;;;;;;;;;776904;177;852273;-69
2024/04/22 02:06:52;;;;;;;9.77;7.63;;;;;;;;;;767893;177;918549;-68
2024/04/22 02:09:18;;;;;;;11.87;8.43;;;;;;;;;;774658;178;634354;-69
2024/04/22 02:11:44;;;;;;;9.10;4.97;;;;;;;;;;773256;178;862869;-70
2024/04/22 02:14:10;;;;;;;8.67;6.37;;;;;;;;;;773380;178;918385;-68
2024/04/22 02:16:36;;;;;;;10.75;7.40;;;;;;;;;;772782;177;920240;-68
2024/04/22 02:19:02;;;;;;;10.70;7.63;;;;;;;;;;773046;178;812546;-68
2024/04/22 02:21:28;;;;;;;11.60;7.40;;;;;;;;;;774593;181;918533;-68
2024/04/22 02:23:53;;;;;;;16.30;10.50;;;;;;;;;;772588;177;894646;-68
2024/04/22 02:26:19;;;;;;;7.90;5.43;;;;;;;;;;776337;180;714385;-69
2024/04/22 02:28:49;;;;;;;12.00;8.17;;;;;;;;;;777395;177;818940;-68
2024/04/22 02:31:11;;;;;;;10.67;6.43;;;;;;;;;;771568;177;859645;-68
2024/04/22 02:33:37;;;;;;;12.02;7.47;;;;;;;;;;775579;177;818269;-69
2024/04/22 02:36:03;;;;;;;9.77;6.20;;;;;;;;;;778189;180;636317;-69
2024/04/22 02:38:28;;;;;;;10.50;7.80;;;;;;;;;;772247;179;875232;-68
2024/04/22 02:40:54;;;;;;;11.50;7.82;;;;;;;;;;772096;179;918408;-69
2024/04/22 02:43:20;;;;;;;9.93;7.40;;;;;;;;;;771596;180;835271;-70
2024/04/22 02:45:46;;;;;;;12.80;8.50;;;;;;;;;;773406;181;711742;-69
2024/04/22 02:48:12;;;;;;;12.33;5.40;;;;;;;;;;768036;177;865449;-68
2024/04/22 02:50:38;;;;;;;10.83;7.73;;;;;;;;;;772839;178;914245;-67
2024/04/22 02:53:04;;;;;;;10.17;6.57;;;;;;;;;;777036;178;851293;-67
2024/04/22 02:55:30;;;;;;;11.67;8.47;;;;;;;;;;775985;177;814108;-68
2024/04/22 02:57:55;;;;;;;9.83;7.90;;;;;;;;;;772173;177;939707;-68
2024/04/22 03:00:21;;;;;;;9.90;7.95;;;;;;;;;;778332;177;835554;-67
2024/04/22 03:02:47;;;;;;;10.60;6.60;;;;;;;;;;775438;177;816989;-68
2024/04/22 03:05:13;;;;;;;11.20;7.90;;;;;;;;;;773636;179;899648;-69
2024/04/22 03:07:39;;;;;;;11.00;8.47;;;;;;;;;;778577;179;806521;-68
2024/04/22 03:10:05;;;;;;;10.37;7.27;;;;;;;;;;774204;177;715674;-68
2024/04/22 03:12:32;;;;;;;8.75;6.03;;;;;;;;;;769828;179;861660;-67
2024/04/22 03:14:56;;;;;;;10.53;6.70;;;;;;;;;;774146;177;821128;-67
2024/04/22 03:17:22;;;;;;;10.93;6.83;;;;;;;;;;768172;181;905453;-67
2024/04/22 03:19:48;;;;;;;11.67;8.67;;;;;;;;;;773106;180;817347;-68
2024/04/22 03:22:14;;;;;;;10.95;8.07;;;;;;;;;;772027;177;920907;-68
2024/04/22 03:24:40;;;;;;;13.83;7.87;;;;;;;;;;776830;178;708980;-67
2024/04/22 03:27:06;;;;;;;11.77;8.30;;;;;;;;;;772328;178;868877;-68
2024/04/22 03:29:31;;;;;;;8.97;7.00;;;;;;;;;;774677;177;798342;-69
2024/04/22 03:31:57;;;;;;;11.57;8.20;;;;;;;;;;779458;177;889740;-68
2024/04/22 03:34:23;;;;;;;11.47;8.53;;;;;;;;;;772132;177;907601;-68
2024/04/22 03:36:49;;;;;;;10.07;8.07;;;;;;;;;;772249;177;818702;-69
2024/04/22 03:39:15;;;;;;;10.20;9.10;;;;;;;;;;775119;180;901748;-68
2024/04/22 03:41:41;;;;;;;13.30;7.43;;;;;;;;;;769657;177;912963;-69
2024/04/22 03:44:06;;;;;;;12.77;8.05;;;;;;;;;;770687;181;785546;-66
2024/04/22 03:51:36;;;;;;;8.10;3.87;;;;;;;;;;771643;177;817412;-68
2024/04/22 03:54:01;;;;;;;12.37;7.67;;;;;;;;;;770778;177;819176;-69
2024/04/22 03:56:27;;;;;;;9.10;6.57;;;;;;;;;;772988;178;904340;-70
2024/04/22 03:58:53;;;;;;;8.17;7.00;;;;;;;;;;770004;181;818562;-69
2024/04/22 04:01:19;;;;;;;10.17;8.30;;;;;;;;;;769523;178;918723;-67
2024/04/22 04:03:45;;;;;;;12.83;9.93;;;;;;;;;;774522;177;638376;-68
2024/04/22 04:06:11;;;;;;;21.07;16.77;;;;;;;;;;775354;177;942038;-68
2024/04/22 04:08:36;;;;;;;15.40;10.67;;;;;;;;;;777159;177;796884;-69
2024/04/22 04:11:11;;;;;;;35.90;22.43;;;;;;;;;;778752;177;633627;-67
2024/04/22 04:13:28;;;;;;;30.10;16.97;;;;;;;;;;779567;177;627258;-68
2024/04/22 04:15:54;;;;;;;22.55;13.68;;;;;;;;;;772748;177;817489;-67
2024/04/22 04:18:20;;;;;;;47.20;27.43;;;;;;;;;;775452;179;917945;-68
2024/04/22 04:20:46;;;;;;;39.80;21.27;;;;;;;;;;779312;178;815392;-69
2024/04/22 04:23:12;;;;;;;33.23;19.40;;;;;;;;;;775082;177;695537;-69
2024/04/22 04:25:37;;;;;;;21.93;13.43;;;;;;;;;;771376;177;623215;-69
2024/04/22 04:28:03;;;;;;;35.23;18.50;;;;;;;;;;776876;177;618154;-69
2024/04/22 04:30:29;;;;;;;109.03;52.33;;;;;;;;;;770652;179;731343;-68
2024/04/22 04:32:56;;;;;;;31.20;18.33;;;;;;;;;;771702;177;814078;-69
2024/04/22 04:35:21;;;;;;;35.55;18.33;;;;;;;;;;773402;177;816241;-68
2024/04/22 04:37:50;;;;;;;29.13;18.37;;;;;;;;;;779408;180;615973;-69
2024/04/22 04:40:13;;;;;;;18.17;10.80;;;;;;;;;;777536;177;620919;-69
2024/04/22 04:42:39;;;;;;;19.20;14.43;;;;;;;;;;777332;179;656019;-69
2024/04/22 04:45:04;;;;;;;17.20;11.10;;;;;;;;;;780086;180;624079;-69
2024/04/22 04:47:30;;;;;;;15.80;12.25;;;;;;;;;;771356;178;632154;-69
2024/04/22 04:49:56;;;;;;;14.10;10.20;;;;;;;;;;773986;177;633111;-69
2024/04/22 04:52:22;;;;;;;15.05;10.55;;;;;;;;;;773537;178;614173;-69
2024/04/22 04:54:48;;;;;;;13.87;9.60;;;;;;;;;;772678;177;638577;-69
2024/04/22 04:57:14;;;;;;;17.77;13.30;;;;;;;;;;773615;180;637450;-69
2024/04/22 04:59:39;;;;;;;14.67;11.30;;;;;;;;;;772819;177;653268;-69
2024/04/22 05:02:05;;;;;;;10.17;6.47;;;;;;;;;;775122;177;632014;-69
2024/04/22 05:04:31;;;;;;;17.03;10.03;;;;;;;;;;775219;178;615639;-69
2024/04/22 05:06:57;;;;;;;13.23;8.90;;;;;;;;;;772958;178;734921;-68
2024/04/22 05:09:23;;;;;;;11.27;8.63;;;;;;;;;;777519;179;818639;-69
2024/04/22 05:11:49;;;;;;;9.70;8.10;;;;;;;;;;773925;177;813848;-68
2024/04/22 05:14:14;;;;;;;8.77;6.32;;;;;;;;;;770648;178;936128;-68
2024/04/22 05:16:42;;;;;;;12.10;8.40;;;;;;;;;;777460;179;815181;-67
2024/04/22 05:19:06;;;;;;;8.33;5.10;;;;;;;;;;772932;178;912029;-68
2024/04/22 05:21:32;;;;;;;10.82;8.13;;;;;;;;;;776358;177;864252;-67
2024/04/22 05:23:58;;;;;;;11.80;6.13;;;;;;;;;;776364;179;917334;-67
2024/04/22 05:26:24;;;;;;;10.90;8.17;;;;;;;;;;774375;179;747215;-67
2024/04/22 05:28:50;;;;;;;12.65;9.40;;;;;;;;;;771641;177;822670;-68
2024/04/22 05:31:16;;;;;;;9.00;4.90;;;;;;;;;;777005;179;817663;-68
2024/04/22 05:36:14;;;;;;;8.13;6.07;;;;;;;;;;772446;178;919301;-68
2024/04/22 05:38:40;;;;;;;8.60;6.12;;;;;;;;;;770425;177;815035;-68
2024/04/22 05:41:06;;;;;;;7.12;4.10;;;;;;;;;;774156;177;950704;-66
2024/04/22 05:43:32;;;;;;;12.97;9.30;;;;;;;;;;769696;177;942349;-67
2024/04/22 05:45:58;;;;;;;12.73;8.67;;;;;;;;;;773508;177;918806;-67
2024/04/22 05:48:24;;;;;;;16.97;9.03;;;;;;;;;;772728;178;806330;-68
2024/04/22 05:50:49;;;;;;;12.30;8.53;;;;;;;;;;773079;179;918013;-68
2024/04/22 05:53:15;;;;;;;18.20;10.50;;;;;;;;;;773995;178;708910;-68
2024/04/22 05:55:41;;;;;;;14.97;9.90;;;;;;;;;;776480;179;823034;-67
2024/04/22 05:58:07;;;;;;;12.70;7.73;;;;;;;;;;768745;180;768422;-67
2024/04/22 06:00:33;;;;;;;11.12;7.50;;;;;;;;;;770700;178;715379;-68
2024/04/22 06:02:59;;;;;;;12.70;7.47;;;;;;;;;;770132;178;812208;-67
2024/04/22 06:05:25;;;;;;;9.43;6.33;;;;;;;;;;774297;178;913993;-69
2024/04/22 06:07:50;;;;;;;22.03;11.00;;;;;;;;;;775357;177;720439;-68
2024/04/22 06:10:16;;;;;;;17.47;8.53;;;;;;;;;;775261;177;661237;-68
2024/04/22 06:12:42;;;;;;;13.43;7.80;;;;;;;;;;776991;180;815880;-67
2024/04/22 06:15:08;;;;;;;14.73;7.80;;;;;;;;;;772976;177;815377;-68
2024/04/22 06:17:34;;;;;;;12.82;8.57;;;;;;;;;;773096;178;818369;-69
2024/04/22 06:20:00;;;;;;;12.33;8.50;;;;;;;;;;778433;177;712642;-68
2024/04/22 06:22:26;;;;;;;18.30;9.73;;;;;;;;;;773397;177;918246;-67
2024/04/22 06:24:51;;;;;;;13.47;7.77;;;;;;;;;;773645;177;819456;-68
2024/04/22 06:27:17;;;;;;;12.10;7.90;;;;;;;;;;770540;177;732039;-70
2024/04/22 06:29:43;;;;;;;16.93;8.10;;;;;;;;;;779940;178;633799;-67
2024/04/22 06:32:09;;;;;;;10.17;8.37;;;;;;;;;;775893;177;814907;-68
2024/04/22 06:34:35;;;;;;;10.00;5.85;;;;;;;;;;773825;177;905491;-68
2024/04/22 06:37:01;;;;;;;8.10;5.87;;;;;;;;;;777723;180;814516;-68
2024/04/22 06:39:26;;;;;;;14.00;6.30;;;;;;;;;;774039;179;704872;-70
2024/04/22 06:41:52;;;;;;;15.90;7.07;;;;;;;;;;773577;177;703341;-70
2024/04/22 06:44:18;;;;;;;16.17;7.10;;;;;;;;;;778325;178;680564;-71
2024/04/22 06:46:44;;;;;;;13.13;6.80;;;;;;;;;;776489;179;634367;-71
2024/04/22 06:49:10;;;;;;;8.63;5.83;;;;;;;;;;773543;177;714683;-70
2024/04/22 06:51:36;;;;;;;11.97;7.33;;;;;;;;;;777444;177;661498;-69
2024/04/22 06:54:01;;;;;;;10.93;6.80;;;;;;;;;;775648;179;795037;-69
2024/04/22 06:56:27;;;;;;;8.30;4.77;;;;;;;;;;774191;178;874755;-68
2024/04/22 06:58:53;;;;;;;8.13;5.17;;;;;;;;;;775840;178;622136;-69
2024/04/22 07:01:19;;;;;;;8.50;5.17;;;;;;;;;;780696;179;625381;-69
2024/04/22 07:03:45;;;;;;;6.00;4.40;;;;;;;;;;773391;177;657429;-69
2024/04/22 07:06:12;;;;;;;8.97;6.17;;;;;;;;;;775267;179;644804;-70
2024/04/22 07:08:37;;;;;;;11.37;7.30;;;;;;;;;;779643;179;615769;-69
2024/04/22 07:11:02;;;;;;;8.20;5.17;;;;;;;;;;775855;180;663760;-69
2024/04/22 07:13:28;;;;;;;9.10;4.67;;;;;;;;;;776480;177;636733;-70
2024/04/22 07:15:54;;;;;;;7.70;4.97;;;;;;;;;;780166;177;661606;-70
2024/04/22 07:18:20;;;;;;;4.70;3.47;;;;;;;;;;776800;179;613139;-70
2024/04/22 07:20:46;;;;;;;6.72;4.62;;;;;;;;;;776035;177;742164;-69
2024/04/22 07:23:12;;;;;;;6.50;4.67;;;;;;;;;;774850;177;707985;-69
2024/04/22 07:25:38;;;;;;;10.37;3.83;;;;;;;;;;771859;178;786919;-69
2024/04/22 07:28:03;;;;;;;11.67;5.93;;;;;;;;;;773570;177;917977;-69
2024/04/22 07:30:30;;;;;;;9.20;5.83;;;;;;;;;;772493;178;817710;-69
2024/04/22 07:32:55;;;;;;;8.33;5.43;;;;;;;;;;777656;177;737239;-69
2024/04/22 07:35:21;;;;;;;11.23;7.33;;;;;;;;;;772073;177;731438;-69
2024/04/22 07:37:47;;;;;;;8.87;6.40;;;;;;;;;;773176;179;713435;-68
2024/04/22 07:40:14;;;;;;;9.20;5.80;;;;;;;;;;777389;180;815643;-67
2024/04/22 07:42:39;;;;;;;5.70;4.23;;;;;;;;;;776309;179;731822;-67
2024/04/22 07:45:06;;;;;;;14.10;6.47;;;;;;;;;;778291;177;654162;-68
2024/04/22 07:47:31;;;;;;;8.20;5.23;;;;;;;;;;779350;177;807911;-67
2024/04/22 07:49:57;;;;;;;7.33;4.70;;;;;;;;;;774257;180;712880;-67
2024/04/22 07:52:23;;;;;;;10.52;4.75;;;;;;;;;;768251;177;1019988;-68
2024/04/22 07:54:49;;;;;;;8.13;4.00;;;;;;;;;;777341;177;922570;-69
2024/04/22 07:57:15;;;;;;;11.77;5.37;;;;;;;;;;774269;177;900623;-68
2024/04/22 07:59:41;;;;;;;8.23;4.40;;;;;;;;;;770715;177;919158;-67
2024/04/22 08:02:07;;;;;;;8.80;5.00;;;;;;;;;;767206;177;818298;-68
2024/04/22 08:04:33;;;;;;;7.40;4.07;;;;;;;;;;775181;178;920571;-67
2024/04/22 08:07:02;;;;;;;10.20;4.87;;;;;;;;;;773790;178;716035;-69
2024/04/22 08:09:28;;;;;;;11.23;4.30;;;;;;;;;;773565;178;815452;-67
2024/04/22 08:11:54;;;;;;;12.37;5.10;;;;;;;;;;779710;180;716719;-67
2024/04/22 08:14:19;;;;;;;11.53;6.40;;;;;;;;;;772076;179;816057;-67
2024/04/22 08:16:45;;;;;;;6.50;4.13;;;;;;;;;;770386;178;815671;-68
2024/04/22 08:19:12;;;;;;;7.03;3.87;;;;;;;;;;773789;180;915106;-67
2024/04/22 08:21:38;;;;;;;13.03;6.83;;;;;;;;;;774796;180;657532;-66
2024/04/22 08:24:03;;;;;;;12.20;8.50;;;;;;;;;;769035;177;811170;-67
2024/04/22 08:26:29;;;;;;;5.37;4.10;;;;;;;;;;770747;178;920700;-68
2024/04/22 08:28:55;;;;;;;6.27;3.53;;;;;;;;;;778689;180;715821;-68
2024/04/22 08:31:21;;;;;;;5.57;3.20;;;;;;;;;;775025;180;772779;-68
2024/04/22 08:33:47;;;;;;;6.23;4.13;;;;;;;;;;773616;177;741417;-69
2024/04/22 08:36:15;;;;;;;8.63;4.53;;;;;;;;;;775502;179;825016;-69
2024/04/22 08:38:38;;;;;;;5.90;3.67;;;;;;;;;;771624;180;819443;-69
2024/04/22 08:41:04;;;;;;;6.27;3.10;;;;;;;;;;772888;177;779631;-69
2024/04/22 08:43:30;;;;;;;5.00;3.07;;;;;;;;;;775926;177;757155;-70
2024/04/22 08:45:56;;;;;;;5.67;3.23;;;;;;;;;;775554;180;811892;-70
2024/04/22 08:48:22;;;;;;;3.37;2.50;;;;;;;;;;773086;177;933393;-69
2024/04/22 08:50:48;;;;;;;6.40;3.90;;;;;;;;;;773580;179;818334;-71
2024/04/22 08:53:14;;;;;;;3.70;2.53;;;;;;;;;;773606;179;706173;-71
2024/04/22 08:55:39;;;;;;;4.07;3.10;;;;;;;;;;775610;180;713424;-69
2024/04/22 08:58:05;;;;;;;5.47;3.47;;;;;;;;;;771377;180;914474;-68
2024/04/22 09:00:31;;;;;;;4.00;2.60;;;;;;;;;;778660;179;925227;-65
2024/04/22 09:02:57;;;;;;;7.20;2.97;;;;;;;;;;773577;177;823119;-65
2024/04/22 09:05:23;;;;;;;7.13;3.17;;;;;;;;;;773289;180;844557;-66
2024/04/22 09:07:49;;;;;;;4.90;2.90;;;;;;;;;;777157;178;818968;-67
2024/04/22 09:10:15;;;;;;;7.23;3.10;;;;;;;;;;772482;179;853282;-66
2024/04/22 09:12:41;;;;;;;5.03;2.73;;;;;;;;;;774513;177;819114;-67
2024/04/22 09:15:07;;;;;;;8.50;3.53;;;;;;;;;;775903;180;818004;-68
2024/04/22 09:17:33;;;;;;;9.50;3.13;;;;;;;;;;769213;177;842687;-67
2024/04/22 09:19:59;;;;;;;7.57;3.00;;;;;;;;;;770576;177;817622;-66
2024/04/22 09:22:24;;;;;;;10.23;3.43;;;;;;;;;;771983;177;914440;-68
2024/04/22 09:24:51;;;;;;;7.67;3.27;;;;;;;;;;773537;180;634820;-68
2024/04/22 09:27:16;;;;;;;5.60;4.00;;;;;;;;;;774744;177;826191;-68
2024/04/22 09:29:43;;;;;;;4.87;2.70;;;;;;;;;;774498;180;721027;-68
2024/04/22 09:32:09;;;;;;;4.53;2.60;;;;;;;;;;779340;178;917424;-67
2024/04/22 09:34:34;;;;;;;6.10;2.93;;;;;;;;;;775743;177;695381;-67
2024/04/22 09:37:00;;;;;;;5.63;3.90;;;;;;;;;;773982;178;915189;-67
2024/04/22 09:39:26;;;;;;;3.87;2.20;;;;;;;;;;775878;178;936736;-67
2024/04/22 09:41:52;;;;;;;3.60;2.23;;;;;;;;;;770157;177;917611;-69
2024/04/22 09:44:18;;;;;;;12.60;4.80;;;;;;;;;;776969;177;640150;-67
2024/04/22 09:46:44;;;;;;;4.20;2.92;;;;;;;;;;777546;178;637369;-69
2024/04/22 09:49:10;;;;;;;4.73;3.00;;;;;;;;;;771441;178;818359;-68
2024/04/22 09:51:35;;;;;;;6.27;2.80;;;;;;;;;;767922;179;820836;-68
2024/04/22 09:54:01;;;;;;;4.43;2.77;;;;;;;;;;773198;179;936758;-68
2024/04/22 09:56:27;;;;;;;5.30;2.30;;;;;;;;;;770992;181;816963;-69
2024/04/22 09:58:53;;;;;;;3.90;2.03;;;;;;;;;;769600;181;854057;-69
2024/04/22 10:01:19;;;;;;;6.03;3.30;;;;;;;;;;772788;177;622881;-69
2024/04/22 10:03:45;;;;;;;4.87;3.30;;;;;;;;;;776391;178;915934;-69
2024/04/22 10:06:10;;;;;;;5.63;3.50;;;;;;;;;;777024;179;913930;-68
2024/04/22 10:08:36;;;;;;;5.82;2.85;;;;;;;;;;774280;178;931404;-68
2024/04/22 10:11:07;;;;;;;6.70;3.47;;;;;;;;;;777073;177;887421;-70
2024/04/22 10:13:33;;;;;;;5.37;2.87;;;;;;;;;;775797;177;818520;-66
2024/04/22 10:15:59;;;;;;;5.57;2.60;;;;;;;;;;771904;178;922373;-69
2024/04/22 10:18:25;;;;;;;6.80;3.50;;;;;;;;;;774030;179;920486;-69
2024/04/22 10:20:51;;;;;;;4.97;3.55;;;;;;;;;;774118;180;819299;-68
2024/04/22 10:23:16;;;;;;;5.07;4.00;;;;;;;;;;771702;177;833674;-69
2024/04/22 10:25:42;;;;;;;5.70;3.17;;;;;;;;;;771901;177;623449;-68
2024/04/22 10:28:08;;;;;;;7.20;3.60;;;;;;;;;;778995;177;616974;-68
2024/04/22 10:30:34;;;;;;;5.57;3.60;;;;;;;;;;773208;180;917883;-68
2024/04/22 10:33:00;;;;;;;12.13;4.57;;;;;;;;;;773033;179;904781;-69
2024/04/22 10:35:25;;;;;;;5.33;3.10;;;;;;;;;;776322;180;816958;-69
2024/04/22 10:37:51;;;;;;;4.50;3.00;;;;;;;;;;772377;180;917909;-68
2024/04/22 10:40:17;;;;;;;5.57;3.77;;;;;;;;;;771819;177;918623;-69
2024/04/22 10:42:43;;;;;;;5.80;3.70;;;;;;;;;;778642;179;742420;-68
2024/04/22 10:45:09;;;;;;;3.93;3.33;;;;;;;;;;771468;179;717099;-68
2024/04/22 10:47:35;;;;;;;3.70;2.70;;;;;;;;;;771050;179;899139;-69
2024/04/22 10:50:00;;;;;;;4.43;3.33;;;;;;;;;;771949;178;918390;-68
2024/04/22 10:52:26;;;;;;;8.00;3.20;;;;;;;;;;769990;181;916873;-68
2024/04/22 10:54:52;;;;;;;6.30;3.90;;;;;;;;;;770700;178;816352;-68
2024/04/22 10:57:18;;;;;;;4.40;3.00;;;;;;;;;;771113;177;818737;-68
2024/04/22 10:59:44;;;;;;;5.25;3.97;;;;;;;;;;773631;178;912725;-68
2024/04/22 11:02:10;;;;;;;6.00;3.30;;;;;;;;;;768875;177;1630822;-67
2024/04/22 11:04:37;;;;;;;5.53;3.10;;;;;;;;;;773481;179;815896;-67
2024/04/22 11:07:01;;;;;;;3.83;2.77;;;;;;;;;;774175;177;884236;-67
2024/04/22 11:09:27;;;;;;;4.00;2.70;;;;;;;;;;770352;179;924403;-67
2024/04/22 11:11:53;;;;;;;4.77;2.83;;;;;;;;;;770401;177;917484;-67
2024/04/22 11:14:19;;;;;;;4.80;2.93;;;;;;;;;;776641;180;920294;-67
2024/04/22 11:16:45;;;;;;;5.63;3.60;;;;;;;;;;775202;178;820056;-66
2024/04/22 11:19:11;;;;;;;6.20;3.33;;;;;;;;;;774179;180;913030;-67
2024/04/22 11:21:36;;;;;;;5.73;3.60;;;;;;;;;;771954;177;888553;-66
2024/04/22 11:24:02;;;;;;;6.77;3.30;;;;;;;;;;769385;180;860671;-66
2024/04/22 11:26:29;;;;;;;5.93;3.03;;;;;;;;;;772016;177;918206;-66
2024/04/22 11:28:57;;;;;;;4.20;2.83;;;;;;;;;;772976;177;626162;-66
2024/04/22 11:31:21;;;;;;;6.20;3.90;;;;;;;;;;777884;178;917727;-65
2024/04/22 11:33:46;;;;;;;4.57;2.77;;;;;;;;;;773651;179;815539;-64
2024/04/22 11:36:12;;;;;;;5.65;3.50;;;;;;;;;;777258;179;628039;-66
2024/04/22 11:38:38;;;;;;;5.30;3.70;;;;;;;;;;780425;179;623363;-66
2024/04/22 11:41:04;;;;;;;3.67;2.67;;;;;;;;;;777372;177;637790;-65
2024/04/22 11:43:30;;;;;;;6.40;3.23;;;;;;;;;;773970;180;719665;-65
2024/04/22 11:45:56;;;;;;;5.27;3.20;;;;;;;;;;780189;179;614980;-66
2024/04/22 11:48:22;;;;;;;4.70;3.10;;;;;;;;;;773344;179;905944;-65
2024/04/22 11:50:47;;;;;;;5.67;3.73;;;;;;;;;;771470;177;719107;-65
2024/04/22 11:53:13;;;;;;;6.10;4.17;;;;;;;;;;770988;177;895668;-66
2024/04/22 11:55:39;;;;;;;6.13;3.83;;;;;;;;;;776772;178;908178;-65
2024/04/22 11:58:05;;;;;;;5.47;4.07;;;;;;;;;;770621;178;720709;-65
2024/04/22 12:00:31;;;;;;;7.23;2.93;;;;;;;;;;769017;178;917976;-67
2024/04/22 12:02:56;;;;;;;6.70;3.70;;;;;;;;;;775789;178;813883;-67
2024/04/22 12:05:22;;;;;;;5.17;3.13;;;;;;;;;;770121;180;919024;-67
2024/04/22 12:07:48;;;;;;;6.97;3.43;;;;;;;;;;774508;177;919925;-66
2024/04/22 12:10:14;;;;;;;4.20;2.73;;;;;;;;;;774200;180;715214;-66
2024/04/22 12:12:40;;;;;;;7.90;4.07;;;;;;;;;;774470;177;918991;-67
2024/04/22 12:15:08;;;;;;;4.60;2.77;;;;;;;;;;772989;177;918098;-67
2024/04/22 12:17:32;;;;;;;5.27;3.73;;;;;;;;;;775612;180;870078;-67
2024/04/22 12:19:58;;;;;;;5.87;3.87;;;;;;;;;;771229;178;816927;-66
2024/04/22 12:22:23;;;;;;;5.53;3.20;;;;;;;;;;773222;177;716215;-65
2024/04/22 12:24:49;;;;;;;5.30;3.03;;;;;;;;;;771211;177;816621;-66
2024/04/22 12:27:15;;;;;;;5.50;4.10;;;;;;;;;;779078;178;815705;-65
2024/04/22 12:29:41;;;;;;;4.20;2.80;;;;;;;;;;776022;180;917746;-65
2024/04/22 12:32:07;;;;;;;6.37;3.97;;;;;;;;;;775955;177;891507;-66
2024/04/22 12:34:33;;;;;;;5.53;3.43;;;;;;;;;;775856;179;900246;-66
2024/04/22 12:36:58;;;;;;;7.07;3.70;;;;;;;;;;773510;179;929729;-65
2024/04/22 12:39:24;;;;;;;6.67;3.23;;;;;;;;;;771974;177;830267;-66
2024/04/22 12:41:50;;;;;;;4.27;3.83;;;;;;;;;;777281;177;712769;-65
2024/04/22 12:44:16;;;;;;;3.60;2.28;;;;;;;;;;776437;180;715382;-65
2024/04/22 12:51:45;;;;;;;5.30;3.47;;;;;;;;;;775844;180;890360;-64
2024/04/22 12:54:11;;;;;;;6.20;4.12;;;;;;;;;;775425;177;917643;-66
2024/04/22 12:56:37;;;;;;;3.43;2.40;;;;;;;;;;775746;177;628251;-66
2024/04/22 12:59:02;;;;;;;5.33;3.30;;;;;;;;;;775715;177;861133;-65
2024/04/22 13:01:28;;;;;;;5.23;4.40;;;;;;;;;;774423;177;810577;-64
2024/04/22 13:03:54;;;;;;;5.73;3.83;;;;;;;;;;770419;177;919827;-66
2024/04/22 13:06:20;;;;;;;4.87;3.00;;;;;;;;;;771130;178;919249;-66
2024/04/22 13:08:46;;;;;;;4.63;3.40;;;;;;;;;;771243;180;889124;-65
2024/04/22 13:11:12;;;;;;;4.37;2.73;;;;;;;;;;772348;180;801099;-65
2024/04/22 13:13:37;;;;;;;6.53;3.83;;;;;;;;;;772623;177;916507;-65
2024/04/22 13:16:04;;;;;;;6.70;3.70;;;;;;;;;;777561;180;629347;-65
2024/04/22 13:18:29;;;;;;;8.47;4.33;;;;;;;;;;768074;180;918606;-66
2024/04/22 13:20:55;;;;;;;6.50;4.13;;;;;;;;;;773422;177;743793;-65
2024/04/22 13:23:21;;;;;;;6.83;4.17;;;;;;;;;;777241;178;909893;-65
2024/04/22 13:25:47;;;;;;;4.27;2.70;;;;;;;;;;772192;177;918615;-67
2024/04/22 13:28:13;;;;;;;6.30;4.00;;;;;;;;;;773554;179;707971;-67
2024/04/22 13:30:42;;;;;;;6.00;4.27;;;;;;;;;;778399;180;626434;-66
2024/04/22 13:33:05;;;;;;;7.40;5.40;;;;;;;;;;773712;178;918556;-67
2024/04/22 13:35:30;;;;;;;6.45;4.57;;;;;;;;;;774113;180;713146;-66
2024/04/22 13:37:56;;;;;;;9.30;4.90;;;;;;;;;;773665;179;816726;-66
2024/04/22 13:40:22;;;;;;;6.23;3.40;;;;;;;;;;775537;179;807911;-67
2024/04/22 13:42:48;;;;;;;6.77;4.40;;;;;;;;;;774852;179;921884;-66
2024/04/22 13:45:14;;;;;;;6.27;3.87;;;;;;;;;;770436;178;918865;-67
2024/04/22 13:47:40;;;;;;;9.90;6.13;;;;;;;;;;779720;177;917631;-67
2024/04/22 13:50:05;;;;;;;3.40;2.40;;;;;;;;;;771449;177;915786;-66
2024/04/22 13:52:31;;;;;;;5.60;3.20;;;;;;;;;;772331;178;814676;-67
2024/04/22 13:54:57;;;;;;;5.83;3.83;;;;;;;;;;778894;180;710332;-66
2024/04/22 13:57:23;;;;;;;5.35;3.60;;;;;;;;;;773615;177;896601;-66
2024/04/22 13:59:49;;;;;;;5.67;4.20;;;;;;;;;;772618;180;916509;-66
2024/04/22 14:02:15;;;;;;;5.13;3.10;;;;;;;;;;776501;180;917638;-66
2024/04/22 14:04:40;;;;;;;4.47;3.27;;;;;;;;;;770673;177;917685;-66
2024/04/22 14:07:06;;;;;;;4.77;2.90;;;;;;;;;;772617;179;808046;-66
2024/04/22 14:09:32;;;;;;;6.17;3.90;;;;;;;;;;771724;177;919199;-66
2024/04/22 14:11:58;;;;;;;4.67;3.87;;;;;;;;;;772178;180;793804;-66
2024/04/22 14:14:24;;;;;;;5.70;3.30;;;;;;;;;;767611;180;923396;-65
2024/04/22 14:16:50;;;;;;;3.80;2.77;;;;;;;;;;773091;178;816316;-65
2024/04/22 14:19:15;;;;;;;4.62;3.22;;;;;;;;;;776513;177;623840;-65
2024/04/22 14:21:41;;;;;;;5.70;3.20;;;;;;;;;;770739;180;921635;-65
2024/04/22 14:24:07;;;;;;;6.20;4.22;;;;;;;;;;772806;178;814318;-66
2024/04/22 14:26:33;;;;;;;8.13;3.90;;;;;;;;;;777400;179;813988;-65
2024/04/22 14:28:59;;;;;;;7.55;5.30;;;;;;;;;;773869;180;813142;-65